Time;durP1;ratioP1;P1;durP2;ratioP2;P2;SDS_P1;SDS_P2;PMS_P1;PMS_P2;Temp;Humidity;BMP_temperature;BMP_pressure;BME280_temperature;BME280_humidity;BME280_pressure;Samples;Min_cycle;Max_cycle;Signal;HPM_P1;HPM_P2
2022/03/21 00:01:51;;;;;;;1.73;1.07;;;11.40;99.90;;;;;;5066150;28;20937;-59
2022/03/21 00:04:22;;;;;;;4.30;1.30;;;11.30;99.90;;;;;;5064134;28;20497;-59
2022/03/21 00:06:53;;;;;;;6.87;1.20;;;11.30;99.60;;;;;;5065831;28;20450;-59
2022/03/21 00:09:23;;;;;;;2.00;1.13;;;11.10;99.90;;;;;;5062162;28;20478;-58
2022/03/21 00:11:56;;;;;;;4.47;1.60;;;11.00;99.90;;;;;;5062163;28;20455;-58
2022/03/21 00:14:27;;;;;;;1.33;1.10;;;10.80;99.90;;;;;;5061093;28;20464;-58
2022/03/21 00:16:58;;;;;;;3.13;1.77;;;10.80;99.90;;;;;;5061889;28;20483;-59
2022/03/21 00:19:29;;;;;;;13.83;2.53;;;10.80;99.90;;;;;;5060993;28;20444;-58
2022/03/21 00:22:00;;;;;;;6.70;2.10;;;10.20;99.90;;;;;;5066192;28;20512;-58
2022/03/21 00:24:30;;;;;;;2.23;1.03;;;9.90;99.90;;;;;;5063881;28;20579;-57
2022/03/21 00:27:03;;;;;;;2.07;1.50;;;9.80;99.90;;;;;;5064400;28;20454;-59
2022/03/21 00:29:34;;;;;;;3.30;1.53;;;9.90;99.90;;;;;;5059234;28;20448;-58
2022/03/21 00:32:09;;;;;;;1.80;0.90;;;9.80;99.90;;;;;;5061996;28;20618;-56
2022/03/21 00:34:40;;;;;;;2.60;1.43;;;9.60;99.90;;;;;;5061992;28;20978;-58
2022/03/21 00:37:12;;;;;;;1.30;1.20;;;9.60;99.90;;;;;;5061191;28;20474;-58
2022/03/21 00:39:43;;;;;;;0.80;0.80;;;9.80;99.90;;;;;;5061547;28;20449;-58
2022/03/21 00:42:16;;;;;;;1.37;1.10;;;9.80;99.90;;;;;;5058906;28;20788;-58
2022/03/21 00:44:46;;;;;;;1.60;1.17;;;9.90;99.90;;;;;;5060509;28;20452;-58
2022/03/21 00:47:18;;;;;;;4.80;1.40;;;10.00;99.90;;;;;;5065480;28;20440;-57
2022/03/21 00:49:49;;;;;;;2.20;1.03;;;10.00;99.90;;;;;;5061176;28;20440;-58
2022/03/21 00:52:20;;;;;;;5.43;1.53;;;10.10;99.90;;;;;;5061446;28;20455;-59
2022/03/21 00:54:51;;;;;;;2.33;1.83;;;10.20;99.90;;;;;;5072043;28;20538;-61
2022/03/21 00:57:24;;;;;;;4.87;2.73;;;10.20;99.90;;;;;;5062657;28;20452;-58
2022/03/21 00:59:55;;;;;;;2.90;1.87;;;10.10;99.90;;;;;;5066113;28;21269;-62
2022/03/21 01:02:26;;;;;;;3.15;1.88;;;9.90;99.90;;;;;;5061502;28;20432;-61
2022/03/21 01:04:57;;;;;;;2.67;2.08;;;9.90;99.90;;;;;;5067243;28;20216;-60
2022/03/21 01:07:28;;;;;;;2.47;1.80;;;10.00;99.90;;;;;;5052063;28;20625;-63
2022/03/21 01:10:00;;;;;;;2.30;1.52;;;9.90;99.90;;;;;;5065114;28;20444;-61
2022/03/21 01:12:33;;;;;;;3.38;1.70;;;9.80;99.90;;;;;;5064990;28;20235;-60
2022/03/21 01:15:04;;;;;;;2.33;1.80;;;9.80;99.90;;;;;;5065434;28;20220;-60
2022/03/21 01:17:36;;;;;;;4.50;2.00;;;9.70;99.90;;;;;;5065372;28;20475;-61
2022/03/21 01:20:08;;;;;;;1.52;1.30;;;9.70;99.90;;;;;;5066166;28;20529;-60
2022/03/21 01:22:38;;;;;;;2.40;1.70;;;9.60;99.90;;;;;;5064629;28;20237;-59
2022/03/21 01:25:10;;;;;;;3.28;1.80;;;9.60;99.90;;;;;;5064236;28;20460;-60
2022/03/21 01:27:43;;;;;;;3.13;1.13;;;9.70;99.90;;;;;;5074469;28;20209;-61
2022/03/21 01:30:16;;;;;;;2.08;1.80;;;9.50;99.90;;;;;;5065216;28;20265;-60
2022/03/21 01:32:47;;;;;;;1.70;1.57;;;9.30;99.90;;;;;;5064285;28;20186;-60
2022/03/21 01:35:21;;;;;;;1.55;1.45;;;9.20;99.90;;;;;;5065865;28;20451;-61
2022/03/21 01:37:52;;;;;;;2.20;1.63;;;9.20;99.90;;;;;;5065108;28;20241;-61
2022/03/21 01:40:23;;;;;;;2.60;1.60;;;9.20;99.90;;;;;;5064690;28;20470;-61
2022/03/21 01:42:57;;;;;;;2.08;1.30;;;9.10;99.90;;;;;;5064260;28;20198;-60
2022/03/21 01:45:28;;;;;;;2.05;1.70;;;9.00;99.90;;;;;;5064955;28;20526;-61
2022/03/21 01:47:59;;;;;;;1.73;1.23;;;9.00;99.90;;;;;;5058892;28;20198;-62
2022/03/21 01:50:30;;;;;;;1.92;1.45;;;9.10;99.90;;;;;;5063750;28;20549;-64
2022/03/21 01:55:48;;;;;;;2.55;1.40;;;9.00;99.90;;;;;;5062589;28;20487;-61
2022/03/21 01:58:21;;;;;;;1.70;1.52;;;9.10;99.90;;;;;;5066462;28;20199;-60
2022/03/21 02:00:52;;;;;;;3.47;2.17;;;9.10;99.90;;;;;;5064286;28;20202;-61
2022/03/21 02:03:24;;;;;;;3.85;1.83;;;9.10;99.90;;;;;;5064069;28;20201;-61
2022/03/21 02:05:55;;;;;;;2.43;1.90;;;8.90;99.90;;;;;;5068904;28;20267;-60
2022/03/21 02:08:26;;;;;;;3.92;2.25;;;9.00;99.90;;;;;;5063019;28;20452;-61
2022/03/21 02:10:57;;;;;;;3.17;2.50;;;9.10;99.90;;;;;;5065010;28;20209;-61
2022/03/21 02:13:31;;;;;;;3.10;1.88;;;9.20;99.90;;;;;;5062578;28;20313;-60
2022/03/21 02:16:02;;;;;;;2.63;2.40;;;9.10;99.90;;;;;;5064532;28;20225;-60
2022/03/21 02:18:34;;;;;;;2.65;2.42;;;9.00;99.90;;;;;;5064192;28;20286;-61
2022/03/21 02:21:07;;;;;;;5.20;4.03;;;8.90;99.90;;;;;;5065022;28;20208;-60
2022/03/21 02:23:43;;;;;;;4.63;3.90;;;8.90;99.90;;;;;;5063904;28;20293;-61
2022/03/21 02:26:17;;;;;;;4.00;3.20;;;8.90;99.90;;;;;;5065865;28;20538;-61
2022/03/21 02:28:51;;;;;;;6.37;2.47;;;8.80;99.90;;;;;;5061866;28;20213;-62
2022/03/21 02:31:23;;;;;;;7.60;3.27;;;8.80;99.90;;;;;;5063653;28;20555;-62
2022/03/21 02:33:56;;;;;;;3.30;2.17;;;8.80;99.90;;;;;;5064054;28;20448;-64
2022/03/21 02:36:29;;;;;;;2.38;2.15;;;8.90;99.90;;;;;;5063789;28;20317;-65
2022/03/21 02:39:01;;;;;;;3.00;2.70;;;8.70;99.90;;;;;;5062939;28;20206;-66
2022/03/21 02:41:34;;;;;;;2.17;2.00;;;8.70;99.90;;;;;;5063814;28;20253;-64
2022/03/21 02:44:05;;;;;;;4.53;2.90;;;8.70;99.90;;;;;;5062297;28;20462;-64
2022/03/21 02:46:37;;;;;;;4.55;2.45;;;8.80;99.90;;;;;;5065668;28;20475;-64
2022/03/21 02:49:08;;;;;;;2.92;2.50;;;8.70;99.90;;;;;;5063304;28;20626;-64
2022/03/21 02:51:42;;;;;;;2.53;2.25;;;8.60;99.90;;;;;;5064424;28;20716;-63
2022/03/21 02:54:15;;;;;;;4.35;3.38;;;8.60;99.90;;;;;;5062480;28;20285;-63
2022/03/21 02:56:48;;;;;;;5.38;3.90;;;8.70;99.90;;;;;;5063384;28;20257;-62
2022/03/21 02:59:19;;;;;;;5.10;4.15;;;8.70;99.90;;;;;;5062006;28;20209;-62
2022/03/21 03:01:53;;;;;;;6.85;4.80;;;8.70;99.90;;;;;;5063956;28;20714;-64
2022/03/21 03:04:24;;;;;;;5.22;4.22;;;8.70;99.90;;;;;;5069648;28;20201;-64
2022/03/21 03:06:56;;;;;;;5.47;3.92;;;8.70;99.90;;;;;;5062811;28;20234;-63
2022/03/21 03:09:26;;;;;;;5.28;3.70;;;8.80;99.90;;;;;;5058155;28;20646;-63
2022/03/21 03:12:00;;;;;;;4.23;3.83;;;8.70;99.90;;;;;;5061978;28;20273;-63
2022/03/21 03:14:31;;;;;;;5.35;4.80;;;8.80;99.90;;;;;;5053408;28;20797;-61
2022/03/21 03:17:02;;;;;;;4.60;4.20;;;8.80;99.90;;;;;;5060821;28;20240;-61
2022/03/21 03:19:36;;;;;;;6.18;4.90;;;8.80;99.90;;;;;;5062200;28;20436;-63
2022/03/21 03:22:08;;;;;;;4.13;3.63;;;8.70;99.90;;;;;;5058547;28;20198;-62
2022/03/21 03:24:40;;;;;;;8.20;4.82;;;8.70;99.90;;;;;;5060631;28;20214;-62
2022/03/21 03:27:12;;;;;;;5.43;4.80;;;8.60;99.90;;;;;;5061911;28;20202;-61
2022/03/21 03:29:44;;;;;;;6.97;5.07;;;8.70;99.90;;;;;;5058067;28;20220;-61
2022/03/21 03:32:16;;;;;;;6.50;5.32;;;8.70;99.90;;;;;;5067473;28;20211;-61
2022/03/21 03:34:47;;;;;;;5.75;5.22;;;8.80;99.90;;;;;;5061630;28;20524;-61
2022/03/21 03:37:19;;;;;;;6.55;5.68;;;8.90;99.90;;;;;;5061984;28;20221;-61
2022/03/21 03:39:50;;;;;;;7.53;5.53;;;8.80;99.90;;;;;;5062402;28;20229;-61
2022/03/21 03:42:23;;;;;;;4.82;4.30;;;8.70;99.90;;;;;;5060144;28;20201;-61
2022/03/21 03:44:54;;;;;;;7.97;5.10;;;8.60;99.90;;;;;;5062289;28;20549;-62
2022/03/21 03:47:25;;;;;;;5.25;4.70;;;8.50;99.90;;;;;;5061881;28;20221;-61
2022/03/21 03:49:58;;;;;;;5.15;4.65;;;8.50;99.90;;;;;;5064377;28;20213;-60
2022/03/21 03:52:29;;;;;;;5.68;5.15;;;8.50;99.90;;;;;;5063084;28;20618;-61
2022/03/21 03:55:00;;;;;;;6.80;6.10;;;8.50;99.90;;;;;;5062345;28;20198;-62
2022/03/21 03:57:32;;;;;;;9.63;6.03;;;8.60;99.90;;;;;;5061248;28;20682;-61
2022/03/21 04:00:03;;;;;;;6.18;5.63;;;8.60;99.90;;;;;;5062145;28;20575;-62
2022/03/21 04:03:44;;;;;;;8.50;6.70;;;8.70;99.90;;;;;;5052388;28;20212;-61
2022/03/21 04:05:26;;;;;;;6.82;6.15;;;8.70;99.90;;;;;;5061834;28;20388;-62
2022/03/21 04:07:57;;;;;;;7.18;6.22;;;8.70;99.90;;;;;;5061051;28;20273;-62
2022/03/21 04:10:29;;;;;;;9.23;7.18;;;8.60;99.90;;;;;;5060412;28;20208;-62
2022/03/21 04:13:02;;;;;;;7.47;6.87;;;8.60;99.90;;;;;;5060482;28;20293;-61
2022/03/21 04:15:33;;;;;;;7.15;6.55;;;8.70;99.90;;;;;;5061053;28;20445;-62
2022/03/21 04:18:05;;;;;;;7.30;6.70;;;8.60;99.90;;;;;;5068192;28;20230;-62
2022/03/21 04:20:37;;;;;;;8.00;7.18;;;8.60;99.90;;;;;;5063493;28;20190;-62
2022/03/21 04:23:09;;;;;;;7.38;6.68;;;8.60;99.90;;;;;;5064998;28;20257;-61
2022/03/21 04:25:40;;;;;;;9.00;6.80;;;8.60;99.90;;;;;;5055329;28;20285;-61
2022/03/21 04:28:14;;;;;;;8.95;7.28;;;8.60;99.90;;;;;;5059786;28;20210;-62
2022/03/21 04:30:45;;;;;;;7.70;6.32;;;8.50;99.90;;;;;;5060317;28;20237;-61
2022/03/21 04:33:16;;;;;;;7.15;6.43;;;8.60;99.90;;;;;;5060778;28;20208;-60
2022/03/21 04:35:48;;;;;;;7.05;6.35;;;8.60;99.90;;;;;;5061660;28;20545;-60
2022/03/21 04:38:19;;;;;;;7.22;5.35;;;8.60;99.90;;;;;;5061574;28;20293;-61
2022/03/21 04:40:52;;;;;;;8.93;6.20;;;8.50;99.90;;;;;;5061321;28;20261;-60
2022/03/21 04:43:24;;;;;;;6.75;4.63;;;8.50;99.90;;;;;;5059710;28;20293;-62
2022/03/21 04:45:55;;;;;;;5.85;4.43;;;8.50;99.90;;;;;;5060061;28;20193;-62
2022/03/21 04:48:26;;;;;;;6.90;4.82;;;8.50;99.90;;;;;;5060771;28;20202;-62
2022/03/21 04:50:58;;;;;;;4.78;4.38;;;8.60;99.90;;;;;;5062116;28;20205;-62
2022/03/21 04:53:28;;;;;;;5.13;4.72;;;8.60;99.90;;;;;;5066569;28;20201;-62
2022/03/21 04:56:00;;;;;;;5.45;4.90;;;8.60;99.90;;;;;;5061759;28;20550;-62
2022/03/21 04:58:36;;;;;;;5.30;4.75;;;8.70;99.90;;;;;;5068077;28;20233;-62
2022/03/21 05:01:08;;;;;;;6.53;4.60;;;8.60;99.90;;;;;;5064801;28;20201;-63
2022/03/21 05:03:39;;;;;;;7.60;4.47;;;8.60;99.90;;;;;;5065845;28;20287;-62
2022/03/21 05:06:12;;;;;;;6.90;4.68;;;8.60;99.90;;;;;;5065046;28;20227;-62
2022/03/21 05:08:43;;;;;;;6.60;4.70;;;8.60;99.90;;;;;;5060911;28;20281;-63
2022/03/21 05:11:14;;;;;;;5.00;4.28;;;8.60;99.90;;;;;;5063277;28;20212;-62
2022/03/21 05:13:47;;;;;;;4.78;4.05;;;8.60;99.90;;;;;;5062838;28;20511;-62
2022/03/21 05:16:26;;;;;;;6.57;4.95;;;8.50;99.90;;;;;;5055319;28;20284;-63
2022/03/21 05:18:58;;;;;;;4.55;4.15;;;8.40;99.90;;;;;;5059031;28;20612;-62
2022/03/21 05:21:28;;;;;;;5.70;5.10;;;8.40;99.90;;;;;;5060461;28;20189;-63
2022/03/21 05:32:25;;;;;;;7.40;6.25;;;8.60;99.90;;;;;;5061795;28;20248;-62
2022/03/21 05:37:43;;;;;;;8.02;6.68;;;8.50;99.90;;;;;;5060536;28;20244;-63
2022/03/21 05:40:34;;;;;;;9.18;7.35;;;8.50;99.90;;;;;;5061731;28;20202;-63
2022/03/21 05:43:05;;;;;;;7.93;6.70;;;8.50;99.90;;;;;;5059617;28;20210;-63
2022/03/21 05:45:38;;;;;;;7.50;6.75;;;8.50;99.90;;;;;;5061379;28;20345;-62
2022/03/21 05:50:57;;;;;;;7.80;6.78;;;8.50;99.90;;;;;;5053252;28;20207;-63
2022/03/21 05:53:28;;;;;;;6.60;6.00;;;8.50;99.90;;;;;;5063924;28;20285;-62
2022/03/21 05:56:00;;;;;;;7.32;6.32;;;8.40;99.90;;;;;;5065289;28;20190;-62
2022/03/21 05:58:31;;;;;;;7.40;6.45;;;8.40;99.90;;;;;;5063081;28;20239;-62
2022/03/21 06:01:04;;;;;;;7.57;5.73;;;8.40;99.90;;;;;;5065090;28;20204;-63
2022/03/21 06:03:35;;;;;;;6.47;5.78;;;8.40;99.90;;;;;;5064784;28;20436;-62
2022/03/21 06:06:06;;;;;;;6.22;5.63;;;8.50;99.90;;;;;;5064734;28;20216;-63
2022/03/21 06:08:38;;;;;;;5.97;5.38;;;8.40;99.90;;;;;;5064310;28;20561;-63
2022/03/21 06:11:09;;;;;;;5.55;4.90;;;8.50;99.90;;;;;;5065289;28;20212;-62
2022/03/21 06:13:43;;;;;;;6.68;5.32;;;8.50;99.90;;;;;;5062806;28;20224;-63
2022/03/21 06:16:17;;;;;;;6.13;4.85;;;8.50;99.90;;;;;;5064919;28;20514;-62
2022/03/21 06:18:48;;;;;;;7.60;5.70;;;8.50;99.90;;;;;;5066662;28;20267;-62
2022/03/21 06:21:18;;;;;;;6.60;5.47;;;8.40;99.90;;;;;;5076373;28;20387;-62
2022/03/21 06:23:49;;;;;;;5.30;4.80;;;8.40;99.90;;;;;;5065514;28;20229;-62
2022/03/21 06:26:21;;;;;;;6.78;5.50;;;8.40;99.90;;;;;;5064690;28;20198;-63
2022/03/21 06:28:52;;;;;;;7.20;5.50;;;8.40;99.90;;;;;;5062421;28;20238;-63
2022/03/21 06:31:24;;;;;;;7.63;5.78;;;8.30;99.90;;;;;;5061182;28;20206;-62
2022/03/21 06:33:55;;;;;;;5.50;5.00;;;8.30;99.90;;;;;;5063328;28;20202;-62
2022/03/21 06:36:26;;;;;;;7.55;5.07;;;8.30;99.90;;;;;;5063065;28;20216;-62
2022/03/21 06:38:57;;;;;;;8.18;5.72;;;8.30;99.90;;;;;;5063544;28;20243;-62
2022/03/21 06:41:28;;;;;;;6.13;4.90;;;8.30;99.90;;;;;;5064221;28;20625;-62
2022/03/21 06:43:59;;;;;;;5.95;5.35;;;8.30;99.90;;;;;;5063219;28;20278;-61
2022/03/21 06:46:32;;;;;;;5.03;4.47;;;8.40;99.90;;;;;;5063940;28;20191;-60
2022/03/21 06:49:03;;;;;;;5.47;4.82;;;8.40;99.90;;;;;;5063245;28;20194;-61
2022/03/21 06:51:34;;;;;;;6.32;5.70;;;8.30;99.90;;;;;;5063646;28;20209;-61
2022/03/21 06:54:05;;;;;;;6.00;5.45;;;8.40;99.90;;;;;;5063569;28;20228;-61
2022/03/21 06:56:36;;;;;;;6.35;5.75;;;8.30;99.90;;;;;;5063772;28;20670;-61
2022/03/21 06:59:11;;;;;;;6.13;5.53;;;8.30;99.90;;;;;;5062579;28;20569;-61
2022/03/21 07:01:43;;;;;;;5.50;5.00;;;8.30;99.90;;;;;;5056610;28;20580;-61
2022/03/21 07:04:15;;;;;;;9.23;5.50;;;8.20;99.90;;;;;;5062632;28;20190;-60
2022/03/21 07:06:46;;;;;;;6.38;5.13;;;8.20;99.90;;;;;;5063331;28;20321;-62
2022/03/21 07:09:18;;;;;;;6.32;5.18;;;8.20;99.90;;;;;;5062835;28;20206;-60
2022/03/21 07:11:49;;;;;;;7.35;5.78;;;8.00;99.90;;;;;;5063208;28;20202;-62
2022/03/21 07:14:20;;;;;;;6.05;4.82;;;8.00;99.90;;;;;;5062421;28;20210;-61
2022/03/21 07:16:52;;;;;;;6.28;5.20;;;8.00;99.90;;;;;;5063840;28;20217;-61
2022/03/21 07:19:24;;;;;;;7.00;5.40;;;8.00;99.90;;;;;;5060018;28;20673;-62
2022/03/21 07:21:55;;;;;;;5.10;4.60;;;8.00;99.90;;;;;;5064278;28;20202;-61
2022/03/21 07:24:26;;;;;;;5.85;5.25;;;8.10;99.90;;;;;;5064095;28;20604;-62
2022/03/21 07:26:57;;;;;;;6.15;4.90;;;8.10;99.90;;;;;;5062979;28;20205;-61
2022/03/21 07:29:28;;;;;;;6.40;5.70;;;8.00;99.90;;;;;;5067484;28;20228;-62
2022/03/21 07:32:00;;;;;;;5.95;5.35;;;8.00;99.90;;;;;;5067856;28;20192;-61
2022/03/21 07:34:31;;;;;;;6.13;5.53;;;8.00;99.90;;;;;;5072186;28;20232;-60
2022/03/21 07:37:02;;;;;;;5.70;5.20;;;7.90;99.90;;;;;;5063428;28;20433;-60
2022/03/21 07:39:35;;;;;;;5.50;4.47;;;7.90;99.90;;;;;;5053876;28;20222;-61
2022/03/21 07:42:07;;;;;;;5.15;4.00;;;7.90;99.90;;;;;;5062921;28;20206;-61
2022/03/21 07:47:28;;;;;;;3.55;3.22;;;7.90;99.90;;;;;;5064280;28;20264;-62
2022/03/21 07:49:59;;;;;;;3.55;3.10;;;7.90;99.90;;;;;;5066014;28;20244;-63
2022/03/21 07:52:30;;;;;;;7.20;3.13;;;7.90;99.90;;;;;;5071937;28;20216;-61
2022/03/21 07:55:01;;;;;;;4.88;2.90;;;8.00;99.90;;;;;;5064090;28;20202;-62
2022/03/21 07:57:33;;;;;;;7.65;3.10;;;8.00;99.90;;;;;;5062918;28;20368;-62
2022/03/21 08:00:05;;;;;;;3.55;3.25;;;8.00;99.90;;;;;;5066000;28;20293;-62
2022/03/21 08:02:38;;;;;;;3.50;2.90;;;8.00;99.90;;;;;;5071344;28;20679;-62
2022/03/21 08:05:10;;;;;;;4.20;3.58;;;7.90;99.90;;;;;;5069542;28;20224;-62
2022/03/21 08:07:41;;;;;;;6.15;4.13;;;7.90;99.90;;;;;;5063705;28;20210;-62
2022/03/21 08:10:15;;;;;;;3.80;3.38;;;8.00;99.90;;;;;;5061929;28;20249;-63
2022/03/21 08:12:47;;;;;;;4.43;4.03;;;7.90;99.90;;;;;;5065559;28;20206;-62
2022/03/21 08:15:17;;;;;;;4.13;3.70;;;8.00;99.90;;;;;;5062568;28;20206;-63
2022/03/21 08:17:56;;;;;;;4.43;3.55;;;7.90;99.90;;;;;;5065202;28;20657;-63
2022/03/21 08:20:33;;;;;;;4.05;3.40;;;7.90;99.90;;;;;;5065958;28;20244;-63
2022/03/21 08:23:06;;;;;;;4.85;3.35;;;7.90;99.90;;;;;;5062343;28;20599;-62
2022/03/21 08:25:38;;;;;;;4.05;3.53;;;7.80;99.90;;;;;;5060596;28;20270;-63
2022/03/21 08:28:09;;;;;;;4.13;3.72;;;7.80;99.90;;;;;;5061939;28;20288;-62
2022/03/21 08:30:42;;;;;;;3.97;3.58;;;7.80;99.90;;;;;;5062477;28;20617;-63
2022/03/21 08:33:15;;;;;;;3.53;3.22;;;7.80;99.90;;;;;;5061696;28;20190;-62
2022/03/21 08:35:46;;;;;;;4.90;3.30;;;7.80;99.90;;;;;;5073490;28;20692;-63
2022/03/21 08:38:17;;;;;;;4.40;3.20;;;7.90;99.90;;;;;;5065345;28;20220;-63
2022/03/21 08:40:48;;;;;;;4.00;3.60;;;7.80;99.90;;;;;;5062255;28;20313;-63
2022/03/21 08:43:19;;;;;;;3.50;3.20;;;7.80;99.90;;;;;;5061344;28;20212;-63
2022/03/21 08:45:50;;;;;;;4.28;3.60;;;7.80;99.90;;;;;;5061895;28;20292;-62
2022/03/21 08:49:23;;;;;;;4.43;4.00;;;7.70;99.90;;;;;;5053337;28;20216;-62
2022/03/21 08:51:15;;;;;;;4.40;3.55;;;7.80;99.90;;;;;;5062436;28;20225;-63
2022/03/21 08:53:45;;;;;;;3.60;3.30;;;7.80;99.90;;;;;;5061548;28;20717;-62
2022/03/21 08:56:16;;;;;;;3.15;2.85;;;7.80;99.90;;;;;;5070722;28;20525;-63
2022/03/21 08:58:47;;;;;;;3.20;2.90;;;7.80;99.90;;;;;;5060955;28;20209;-62
2022/03/21 09:01:18;;;;;;;6.65;3.67;;;7.80;99.90;;;;;;5055111;28;20244;-62
2022/03/21 09:03:51;;;;;;;3.70;3.40;;;7.80;99.90;;;;;;5070047;28;20201;-62
2022/03/21 09:06:22;;;;;;;3.88;3.30;;;7.80;99.90;;;;;;5066099;28;20213;-62
2022/03/21 09:08:54;;;;;;;4.55;3.60;;;7.80;99.90;;;;;;5061008;28;20220;-62
2022/03/21 09:11:25;;;;;;;4.50;4.10;;;7.80;99.90;;;;;;5065678;28;20239;-62
2022/03/21 09:13:56;;;;;;;5.85;4.45;;;7.70;99.90;;;;;;5065698;28;20206;-62
2022/03/21 09:16:28;;;;;;;5.05;4.32;;;7.80;99.90;;;;;;5072052;28;20578;-63
2022/03/21 09:19:01;;;;;;;6.95;5.40;;;7.80;99.90;;;;;;5060868;28;20232;-62
2022/03/21 09:21:32;;;;;;;6.53;4.85;;;7.80;99.90;;;;;;5065528;28;20221;-62
2022/03/21 09:24:03;;;;;;;6.95;5.45;;;7.80;99.90;;;;;;5065340;28;20211;-62
2022/03/21 09:26:33;;;;;;;6.35;4.72;;;7.80;99.90;;;;;;5060401;28;20202;-62
2022/03/21 09:29:05;;;;;;;7.32;5.18;;;7.80;99.90;;;;;;5065096;28;20205;-62
2022/03/21 09:31:38;;;;;;;5.90;5.18;;;7.70;99.90;;;;;;5065563;28;20236;-61
2022/03/21 09:34:14;;;;;;;5.93;5.22;;;7.70;99.90;;;;;;5054064;28;20209;-63
2022/03/21 09:36:45;;;;;;;6.85;4.85;;;7.70;99.90;;;;;;5064949;28;20512;-64
2022/03/21 09:39:17;;;;;;;6.00;5.43;;;7.70;99.90;;;;;;5065202;28;20239;-63
2022/03/21 09:41:48;;;;;;;7.20;4.63;;;7.70;99.90;;;;;;5065633;28;20231;-63
2022/03/21 09:44:19;;;;;;;5.25;4.60;;;7.70;99.90;;;;;;5064688;28;20637;-63
2022/03/21 09:46:51;;;;;;;4.75;4.35;;;7.70;99.90;;;;;;5064404;28;20206;-64
2022/03/21 09:49:30;;;;;;;5.75;4.15;;;7.70;99.90;;;;;;5051981;28;20187;-64
2022/03/21 09:52:01;;;;;;;5.97;4.43;;;7.70;99.90;;;;;;5071809;28;20271;-63
2022/03/21 09:54:32;;;;;;;4.78;4.22;;;7.80;99.90;;;;;;5068430;28;20202;-63
2022/03/21 09:57:04;;;;;;;5.93;4.47;;;7.80;99.90;;;;;;5069642;28;20206;-64
2022/03/21 09:59:35;;;;;;;5.55;4.28;;;7.80;99.90;;;;;;5064236;28;20210;-63
2022/03/21 10:02:08;;;;;;;5.80;4.85;;;7.80;99.90;;;;;;5069542;28;20216;-64
2022/03/21 10:04:41;;;;;;;6.72;4.60;;;7.70;99.90;;;;;;5064588;28;20267;-63
2022/03/21 10:07:13;;;;;;;5.75;4.85;;;7.70;99.90;;;;;;5065068;28;20190;-63
2022/03/21 10:09:44;;;;;;;4.75;3.55;;;7.80;99.90;;;;;;5064315;28;20282;-63
2022/03/21 10:12:15;;;;;;;4.82;3.78;;;7.80;99.90;;;;;;5064272;28;20206;-63
2022/03/21 10:14:47;;;;;;;3.92;2.92;;;7.80;99.90;;;;;;5065015;28;20222;-63
2022/03/21 10:17:24;;;;;;;2.72;2.53;;;7.80;99.90;;;;;;5063968;28;20677;-62
2022/03/21 10:19:56;;;;;;;2.95;2.67;;;7.70;99.90;;;;;;5064528;28;20269;-63
2022/03/21 10:22:43;;;;;;;2.70;2.47;;;7.70;99.90;;;;;;5050569;28;20208;-63
2022/03/21 10:25:17;;;;;;;3.25;2.20;;;7.70;99.90;;;;;;5066261;28;20192;-63
2022/03/21 10:27:53;;;;;;;3.60;2.05;;;7.70;99.90;;;;;;5063228;28;20220;-64
2022/03/21 10:30:26;;;;;;;2.35;2.03;;;7.70;99.90;;;;;;5069047;28;20332;-63
2022/03/21 10:32:58;;;;;;;2.33;2.10;;;7.70;99.90;;;;;;5064133;28;20198;-64
2022/03/21 10:35:32;;;;;;;2.17;2.00;;;7.60;99.90;;;;;;5065112;28;20198;-63
2022/03/21 10:38:04;;;;;;;2.65;2.00;;;7.50;99.90;;;;;;5063461;28;20204;-63
2022/03/21 10:40:37;;;;;;;2.13;2.00;;;7.50;99.90;;;;;;5071707;28;20225;-63
2022/03/21 10:43:10;;;;;;;4.88;2.30;;;7.50;99.90;;;;;;5053893;28;20312;-63
2022/03/21 10:45:47;;;;;;;2.30;2.10;;;7.40;99.90;;;;;;5063935;28;20224;-62
2022/03/21 10:48:19;;;;;;;3.45;2.08;;;7.40;99.90;;;;;;5070878;28;20208;-62
2022/03/21 10:50:53;;;;;;;5.82;1.75;;;7.40;99.90;;;;;;5066040;28;20206;-62
2022/03/21 10:53:25;;;;;;;2.58;1.70;;;7.40;99.90;;;;;;5076674;28;20186;-63
2022/03/21 10:56:04;;;;;;;4.25;2.45;;;7.40;99.90;;;;;;5066068;28;20200;-62
2022/03/21 10:58:36;;;;;;;2.20;2.00;;;7.40;99.90;;;;;;5068123;28;20261;-62
2022/03/21 11:01:15;;;;;;;1.60;1.50;;;7.40;99.90;;;;;;5061344;28;20230;-63
2022/03/21 11:03:49;;;;;;;4.18;1.90;;;7.30;99.90;;;;;;5071296;28;20227;-62
2022/03/21 11:06:21;;;;;;;2.05;1.63;;;7.30;99.90;;;;;;5064204;28;20391;-63
2022/03/21 11:08:54;;;;;;;2.45;1.95;;;7.30;99.90;;;;;;5063530;28;20216;-63
2022/03/21 11:11:25;;;;;;;5.75;1.50;;;7.30;99.90;;;;;;5065095;28;20212;-62
2022/03/21 11:13:56;;;;;;;4.15;1.65;;;7.30;99.90;;;;;;5071806;28;20199;-62
2022/03/21 11:16:28;;;;;;;1.15;1.10;;;7.30;99.90;;;;;;5062770;28;20604;-62
2022/03/21 11:18:59;;;;;;;2.90;1.67;;;7.30;99.90;;;;;;5071051;28;20252;-62
2022/03/21 11:21:33;;;;;;;4.30;1.80;;;7.30;99.90;;;;;;5064527;28;20229;-62
2022/03/21 11:24:04;;;;;;;1.80;1.55;;;7.30;99.90;;;;;;5071935;28;20273;-62
2022/03/21 11:26:45;;;;;;;1.92;1.50;;;7.40;99.90;;;;;;5064366;28;20212;-62
2022/03/21 11:29:33;;;;;;;2.20;1.65;;;7.30;99.90;;;;;;5062303;28;20194;-62
2022/03/21 11:32:22;;;;;;;6.95;1.90;;;7.30;99.90;;;;;;5059773;28;20198;-61
2022/03/21 11:35:03;;;;;;;2.55;1.83;;;7.30;99.90;;;;;;5059338;28;20221;-61
2022/03/21 11:37:37;;;;;;;2.42;1.95;;;7.20;99.90;;;;;;5062527;28;20204;-62
2022/03/21 11:40:33;;;;;;;4.10;1.75;;;7.30;99.90;;;;;;5064567;28;20202;-60
2022/03/21 11:43:30;;;;;;;2.55;1.80;;;7.30;99.90;;;;;;5069504;28;20200;-62
2022/03/21 11:46:27;;;;;;;5.25;1.90;;;7.30;99.90;;;;;;5070415;28;20202;-61
2022/03/21 11:48:59;;;;;;;3.78;1.95;;;7.30;99.90;;;;;;5062631;28;20266;-61
2022/03/21 11:51:41;;;;;;;1.75;1.63;;;7.30;99.90;;;;;;5061169;28;20213;-60
2022/03/21 11:54:30;;;;;;;3.03;1.80;;;7.40;99.90;;;;;;5056424;28;20626;-61
2022/03/21 11:57:04;;;;;;;3.20;1.70;;;7.40;99.90;;;;;;5062982;28;20208;-61
2022/03/21 12:00:04;;;;;;;2.28;1.98;;;7.30;99.90;;;;;;5075123;28;20213;-61
2022/03/21 12:03:01;;;;;;;2.97;2.00;;;7.40;99.90;;;;;;5068838;28;20221;-61
2022/03/21 12:05:54;;;;;;;3.13;1.63;;;7.30;99.90;;;;;;5063974;28;20221;-61
2022/03/21 12:08:52;;;;;;;3.05;1.80;;;7.30;99.90;;;;;;5069454;28;20210;-61
2022/03/21 12:12:01;;;;;;;3.90;2.50;;;7.30;99.90;;;;;;5070261;28;20303;-62
2022/03/21 12:14:47;;;;;;;2.00;1.80;;;7.40;99.90;;;;;;5061355;28;20255;-62
2022/03/21 12:17:41;;;;;;;1.63;1.52;;;7.40;99.90;;;;;;5070659;28;20323;-61
2022/03/21 12:20:13;;;;;;;3.40;1.40;;;7.40;99.90;;;;;;5070163;28;20202;-61
2022/03/21 12:23:20;;;;;;;2.08;1.92;;;7.30;99.90;;;;;;5060412;28;20301;-61
2022/03/21 12:25:53;;;;;;;1.60;1.50;;;7.30;99.90;;;;;;5046528;28;20194;-61
2022/03/21 12:31:27;;;;;;;2.13;1.20;;;7.30;99.90;;;;;;5032308;28;20623;-62
2022/03/21 12:34:30;;;;;;;1.75;1.60;;;7.30;99.90;;;;;;5062931;28;20197;-61
2022/03/21 12:37:09;;;;;;;1.80;1.02;;;7.30;99.90;;;;;;5067598;28;20193;-61
2022/03/21 12:39:41;;;;;;;1.90;1.60;;;7.20;99.90;;;;;;5062284;28;20663;-61
2022/03/21 12:42:19;;;;;;;4.32;1.27;;;7.30;99.90;;;;;;5074221;28;20233;-61
2022/03/21 12:44:50;;;;;;;1.45;1.30;;;7.20;99.90;;;;;;5061830;28;20206;-61
2022/03/21 12:47:22;;;;;;;1.27;1.17;;;7.20;99.90;;;;;;5060364;28;20218;-62
2022/03/21 12:49:55;;;;;;;2.60;1.85;;;7.30;99.90;;;;;;5069430;28;20214;-61
2022/03/21 12:52:30;;;;;;;3.80;1.90;;;7.30;99.90;;;;;;5060901;28;20226;-62
2022/03/21 12:55:03;;;;;;;4.50;2.30;;;7.30;99.90;;;;;;5069047;28;20190;-62
2022/03/21 12:57:33;;;;;;;4.35;2.42;;;7.30;99.90;;;;;;5059643;28;20186;-61
2022/03/21 13:00:18;;;;;;;4.90;2.20;;;7.30;99.90;;;;;;5054184;28;20224;-61
2022/03/21 13:02:55;;;;;;;2.10;1.80;;;7.40;99.90;;;;;;5051093;28;20225;-61
2022/03/21 13:11:05;;;;;;;2.97;2.05;;;7.30;99.90;;;;;;5063722;28;20207;-61
2022/03/21 13:13:44;;;;;;;2.95;2.10;;;7.30;99.90;;;;;;5058092;28;20205;-62
2022/03/21 13:16:15;;;;;;;2.08;1.40;;;7.30;99.90;;;;;;5051251;28;20212;-61
2022/03/21 13:18:47;;;;;;;4.07;2.13;;;7.30;99.90;;;;;;4966422;28;2779437;-61
2022/03/21 13:21:20;;;;;;;2.75;2.25;;;7.30;99.90;;;;;;5075132;28;20236;-61
2022/03/21 13:23:52;;;;;;;3.08;1.58;;;7.30;99.90;;;;;;5061563;28;20269;-61
2022/03/21 13:26:24;;;;;;;1.70;1.30;;;7.30;99.90;;;;;;5067943;28;20260;-61
2022/03/21 13:29:06;;;;;;;2.55;1.60;;;7.20;99.90;;;;;;5060240;28;20206;-61
2022/03/21 13:31:36;;;;;;;1.83;1.73;;;7.20;99.90;;;;;;5061511;28;20233;-63
2022/03/21 13:34:13;;;;;;;4.78;1.70;;;7.20;99.90;;;;;;5063446;28;20206;-61
2022/03/21 13:36:45;;;;;;;3.42;2.00;;;7.20;99.90;;;;;;5064500;28;20197;-61
2022/03/21 13:39:17;;;;;;;4.45;1.77;;;7.20;99.90;;;;;;5063632;28;20206;-62
2022/03/21 13:41:59;;;;;;;2.20;1.50;;;7.30;99.90;;;;;;5061528;28;20205;-62
2022/03/21 13:44:32;;;;;;;1.95;1.70;;;7.30;99.90;;;;;;5064617;28;20279;-61
2022/03/21 13:47:04;;;;;;;1.85;1.30;;;7.20;99.90;;;;;;5075673;28;20208;-62
2022/03/21 13:49:53;;;;;;;2.90;1.80;;;7.30;99.90;;;;;;5064776;28;20202;-61
2022/03/21 13:52:45;;;;;;;2.13;1.83;;;7.30;99.90;;;;;;5064301;28;20209;-61
2022/03/21 13:55:17;;;;;;;2.10;1.63;;;7.30;99.90;;;;;;5065880;28;20195;-60
2022/03/21 13:57:52;;;;;;;2.13;1.60;;;7.30;99.90;;;;;;5061092;28;20198;-60